createdAt,value
2019-05-06T00:00:24.845Z,19.35
2019-05-06T00:02:54.447Z,23.85
2019-05-06T00:05:25.384Z,19.65
2019-05-06T00:07:54.433Z,17.77
2019-05-06T00:10:28.279Z,19.45
2019-05-06T00:12:57.180Z,21.93
2019-05-06T00:15:25.742Z,17.75
2019-05-06T00:17:54.322Z,19.87
2019-05-06T00:20:24.318Z,21.68
2019-05-06T00:22:57.398Z,18.00
2019-05-06T00:28:10.148Z,16.77
2019-05-06T00:30:40.343Z,21.93
2019-05-06T00:33:08.778Z,18.92
2019-05-06T00:35:37.434Z,23.12
2019-05-06T00:38:05.871Z,19.45
2019-05-06T00:40:47.606Z,22.22
2019-05-06T00:43:16.045Z,20.92
2019-05-06T00:45:44.516Z,20.08
2019-05-06T00:48:13.958Z,23.32
2019-05-06T00:50:44.125Z,22.95
2019-05-06T00:53:14.284Z,23.87
2019-05-06T00:55:44.597Z,16.87
2019-05-06T00:58:14.254Z,20.82
2019-05-06T01:00:44.300Z,21.57
2019-05-06T01:03:14.096Z,20.52
2019-05-06T01:05:44.412Z,19.73
2019-05-06T01:08:14.135Z,22.35
2019-05-06T01:10:44.835Z,23.32
2019-05-06T01:13:29.684Z,21.62
2019-05-06T01:15:58.113Z,21.27
2019-05-06T01:18:26.600Z,19.45
2019-05-06T01:21:09.676Z,22.00
2019-05-06T01:23:43.705Z,23.57
2019-05-06T01:26:14.986Z,22.52
2019-05-06T01:28:44.706Z,28.70
2019-05-06T01:31:13.976Z,26.70
2019-05-06T01:33:45.005Z,26.02
2019-05-06T01:36:14.119Z,24.05
2019-05-06T01:38:50.965Z,24.80
2019-05-06T01:41:21.013Z,25.50
2019-05-06T01:43:49.513Z,19.25
2019-05-06T01:46:17.983Z,21.80
2019-05-06T01:48:49.082Z,26.25
2019-05-06T01:51:24.259Z,25.60
2019-05-06T01:53:54.457Z,22.77
2019-05-06T01:56:24.177Z,18.15
2019-05-06T01:58:53.657Z,30.12
2019-05-06T02:01:22.182Z,23.00
2019-05-06T02:03:50.821Z,24.10
2019-05-06T02:06:19.362Z,26.40
2019-05-06T02:08:47.843Z,23.62
2019-05-06T02:11:16.398Z,25.75
2019-05-06T02:13:45.388Z,22.67
2019-05-06T02:16:14.765Z,29.72
2019-05-06T02:18:44.915Z,24.87
2019-05-06T02:21:17.951Z,23.80
2019-05-06T02:26:15.840Z,22.48
2019-05-06T02:28:45.924Z,30.30
2019-05-06T02:31:35.164Z,22.85
2019-05-06T02:34:05.067Z,23.12
2019-05-06T02:36:51.348Z,24.05
2019-05-06T02:39:23.365Z,25.48
2019-05-06T02:41:50.012Z,24.72
2019-05-06T02:44:18.525Z,21.52
2019-05-06T02:46:48.606Z,26.17
2019-05-06T02:49:18.771Z,25.27
2019-05-06T02:51:47.194Z,26.02
2019-05-06T02:54:15.736Z,23.50
2019-05-06T02:56:44.265Z,21.70
2019-05-06T02:59:13.038Z,24.10
2019-05-06T03:01:43.233Z,21.50
2019-05-06T03:04:13.194Z,21.97
2019-05-06T03:06:44.543Z,23.12
2019-05-06T03:09:13.491Z,27.27
2019-05-06T03:11:43.772Z,24.65
2019-05-06T03:14:13.859Z,25.43
2019-05-06T03:16:43.935Z,30.57
2019-05-06T03:19:13.481Z,21.42
2019-05-06T03:21:44.763Z,24.63
2019-05-06T03:24:18.006Z,23.30
2019-05-06T03:29:14.411Z,46.37
2019-05-06T03:31:46.232Z,39.90
2019-05-06T03:34:35.456Z,21.20
2019-05-06T03:36:48.503Z,39.85
2019-05-06T03:39:13.977Z,33.98
2019-05-06T03:41:43.668Z,35.08
2019-05-06T03:44:16.301Z,25.05
2019-05-06T03:47:05.348Z,25.43
2019-05-06T03:49:37.603Z,25.30
2019-05-06T03:52:06.108Z,29.87
2019-05-06T03:54:35.507Z,27.85
2019-05-06T03:57:04.804Z,24.55
2019-05-06T03:59:34.005Z,27.90
2019-05-06T04:02:05.328Z,24.02
2019-05-06T04:04:33.355Z,30.82
2019-05-06T04:07:03.380Z,33.83
2019-05-06T04:09:36.329Z,29.32
2019-05-06T04:12:03.576Z,30.02
2019-05-06T04:14:33.752Z,35.10
2019-05-06T04:17:07.174Z,27.27
2019-05-06T04:19:40.084Z,27.95
2019-05-06T04:24:44.520Z,26.93
2019-05-06T04:27:53.770Z,29.48
2019-05-06T04:30:24.281Z,23.60
2019-05-06T04:32:53.321Z,26.75
2019-05-06T04:35:22.997Z,29.15
2019-05-06T04:37:53.921Z,38.73
2019-05-06T04:40:23.784Z,31.07
2019-05-06T04:42:52.862Z,33.08
2019-05-06T04:45:23.538Z,31.15
2019-05-06T04:47:53.684Z,29.18
2019-05-06T04:50:24.131Z,24.20
2019-05-06T04:52:56.343Z,33.33
2019-05-06T04:55:24.876Z,27.27
2019-05-06T04:57:54.345Z,35.38
2019-05-06T05:00:23.369Z,28.35
2019-05-06T05:02:54.759Z,26.20
2019-05-06T05:05:23.187Z,33.15
2019-05-06T05:07:52.974Z,30.37
2019-05-06T05:10:26.377Z,32.17
2019-05-06T05:13:13.487Z,21.95
2019-05-06T05:15:49.540Z,28.40
2019-05-06T05:18:25.937Z,28.42
2019-05-06T05:20:54.510Z,26.97
2019-05-06T05:23:23.033Z,25.48
2019-05-06T05:25:52.197Z,23.95
2019-05-06T05:28:22.308Z,27.15
2019-05-06T05:30:52.186Z,21.50
2019-05-06T05:33:22.480Z,23.42
2019-05-06T05:35:52.540Z,24.02
2019-05-06T05:38:22.775Z,26.02
2019-05-06T05:40:52.620Z,21.15
2019-05-06T05:43:23.048Z,22.73
2019-05-06T05:45:52.354Z,24.80
2019-05-06T05:48:38.723Z,26.87
2019-05-06T05:51:07.326Z,23.57
2019-05-06T05:53:36.188Z,24.23
2019-05-06T05:56:04.985Z,24.85
2019-05-06T05:58:33.426Z,30.82
2019-05-06T06:01:04.110Z,26.20
2019-05-06T06:03:32.619Z,23.85
2019-05-06T06:06:03.035Z,20.05
2019-05-06T06:08:32.240Z,25.80
2019-05-06T06:11:17.735Z,21.25
2019-05-06T06:13:46.230Z,23.00
2019-05-06T06:16:19.482Z,24.57
2019-05-06T06:19:04.174Z,25.45
2019-05-06T06:21:37.315Z,22.90
2019-05-06T06:24:07.537Z,25.55
2019-05-06T06:26:36.051Z,22.73
2019-05-06T06:29:04.640Z,25.02
2019-05-06T06:31:46.652Z,21.82
2019-05-06T06:34:35.046Z,27.02
2019-05-06T06:37:22.601Z,21.97
2019-05-06T06:39:52.682Z,22.10
2019-05-06T06:42:22.188Z,18.85
2019-05-06T06:44:52.054Z,19.70
2019-05-06T06:47:22.462Z,22.02
2019-05-06T06:49:53.280Z,23.55
2019-05-06T06:52:23.145Z,24.55
2019-05-06T06:54:52.633Z,22.58
2019-05-06T06:57:26.139Z,31.87
2019-05-06T07:00:00.091Z,26.33
2019-05-06T07:02:32.678Z,22.42
2019-05-06T07:05:27.689Z,20.53
2019-05-06T07:07:47.987Z,19.32
2019-05-06T07:10:33.228Z,19.30
2019-05-06T07:13:02.853Z,17.67
2019-05-06T07:15:33.673Z,19.57
2019-05-06T07:18:02.499Z,22.17
2019-05-06T07:20:38.560Z,19.48
2019-05-06T07:23:23.817Z,22.77
2019-05-06T07:25:53.704Z,19.05
2019-05-06T07:28:23.333Z,13.60
2019-05-06T07:30:52.242Z,20.20
2019-05-06T07:33:22.948Z,22.77
2019-05-06T07:35:53.054Z,17.25
2019-05-06T07:38:23.150Z,15.65
2019-05-06T07:40:53.574Z,22.50
2019-05-06T07:43:33.886Z,21.85
2019-05-06T07:46:23.369Z,24.45
2019-05-06T07:48:51.901Z,15.55
2019-05-06T07:51:20.518Z,21.35
2019-05-06T07:53:48.970Z,15.65
2019-05-06T07:56:17.433Z,16.60
2019-05-06T07:58:45.860Z,19.67
2019-05-06T08:01:14.455Z,19.75
2019-05-06T08:03:43.298Z,20.45
2019-05-06T08:06:13.272Z,16.02
2019-05-06T08:08:43.322Z,14.68
2019-05-06T08:11:12.450Z,15.20
2019-05-06T08:13:43.210Z,17.10
2019-05-06T08:16:13.172Z,17.57
2019-05-06T08:18:42.528Z,16.23
2019-05-06T08:21:15.598Z,13.75
2019-05-06T08:23:45.664Z,14.25
2019-05-06T08:26:17.609Z,18.12
2019-05-06T08:28:44.709Z,15.28
2019-05-06T08:31:13.307Z,16.05
2019-05-06T08:33:43.172Z,10.88
2019-05-06T08:36:14.939Z,9.68
2019-05-06T08:39:02.834Z,13.22
2019-05-06T08:41:33.163Z,14.05
2019-05-06T08:44:02.675Z,13.30
2019-05-06T08:46:32.670Z,10.65
2019-05-06T08:49:03.107Z,15.32
2019-05-06T08:51:39.628Z,10.75
2019-05-06T08:54:27.620Z,13.45
2019-05-06T08:56:56.183Z,14.73
2019-05-06T08:59:24.658Z,11.03
2019-05-06T09:01:55.196Z,17.05
2019-05-06T09:04:23.747Z,15.23
2019-05-06T09:06:53.355Z,13.83
2019-05-06T09:09:22.515Z,11.12
2019-05-06T09:11:53.213Z,15.63
2019-05-06T09:14:23.234Z,13.45
2019-05-06T09:16:53.851Z,8.53
2019-05-06T09:19:23.280Z,12.28
2019-05-06T09:21:53.316Z,10.88
2019-05-06T09:24:23.018Z,8.65
2019-05-06T09:26:53.604Z,13.62
2019-05-06T09:29:38.610Z,12.93
2019-05-06T09:32:08.723Z,6.25
2019-05-06T09:34:38.930Z,8.23
2019-05-06T09:37:18.138Z,13.50
2019-05-06T09:39:46.863Z,10.95
2019-05-06T09:42:15.720Z,13.28
2019-05-06T09:44:45.429Z,10.95
2019-05-06T09:47:33.062Z,11.35
2019-05-06T09:50:02.791Z,11.63
2019-05-06T09:52:33.350Z,10.82
2019-05-06T09:55:18.363Z,17.07
2019-05-06T09:57:57.352Z,13.03
2019-05-06T10:00:28.228Z,12.80
2019-05-06T10:02:56.898Z,16.93
2019-05-06T10:05:25.410Z,9.95
2019-05-06T10:07:53.998Z,11.85
2019-05-06T10:10:22.565Z,9.43
2019-05-06T10:12:53.016Z,8.85
2019-05-06T10:15:21.990Z,7.30
2019-05-06T10:18:09.012Z,10.45
2019-05-06T10:20:43.210Z,12.18
2019-05-06T10:23:12.164Z,8.40
2019-05-06T10:25:43.374Z,9.55
2019-05-06T10:28:13.468Z,7.87
2019-05-06T10:30:42.124Z,10.53
2019-05-06T10:33:12.376Z,13.93
2019-05-06T10:35:42.861Z,12.88
2019-05-06T10:38:23.003Z,12.73
2019-05-06T10:41:00.760Z,13.85
2019-05-06T10:43:27.873Z,8.08
2019-05-06T10:45:56.351Z,11.08
2019-05-06T10:48:24.868Z,12.82
2019-05-06T10:50:57.401Z,11.20
2019-05-06T10:53:26.002Z,11.45
2019-05-06T10:55:55.813Z,9.35
2019-05-06T10:58:24.328Z,8.43
2019-05-06T11:00:54.646Z,12.93
2019-05-06T11:03:23.625Z,7.67
2019-05-06T11:05:53.507Z,8.53
2019-05-06T11:08:22.304Z,9.13
2019-05-06T11:10:53.178Z,13.00
2019-05-06T11:13:21.119Z,10.70
2019-05-06T11:15:49.599Z,9.78
2019-05-06T11:18:18.098Z,10.40
2019-05-06T11:20:46.656Z,11.95
2019-05-06T11:23:15.091Z,10.38
2019-05-06T11:25:43.596Z,10.75
2019-05-06T11:28:29.648Z,8.98
2019-05-06T11:31:02.248Z,11.08
2019-05-06T11:33:32.904Z,9.10
2019-05-06T11:36:05.679Z,13.30
2019-05-06T11:38:34.150Z,10.80
2019-05-06T11:41:02.800Z,9.68
2019-05-06T11:43:32.500Z,10.28
2019-05-06T11:46:01.146Z,8.13
2019-05-06T11:48:29.587Z,9.25
2019-05-06T11:50:59.763Z,11.50
2019-05-06T11:53:28.327Z,7.67
2019-05-06T11:55:56.852Z,13.85
2019-05-06T11:58:33.078Z,10.90
2019-05-06T12:01:03.408Z,9.60
2019-05-06T12:03:32.685Z,11.83
2019-05-06T12:06:03.698Z,11.30
2019-05-06T12:08:32.666Z,7.03
2019-05-06T12:11:02.949Z,2.80
2019-05-06T12:13:33.699Z,4.17
2019-05-06T12:16:02.463Z,5.70
2019-05-06T12:18:31.060Z,4.33
2019-05-06T12:21:09.142Z,7.37
2019-05-06T12:23:29.842Z,4.35
2019-05-06T12:25:58.358Z,5.47
2019-05-06T12:28:26.831Z,4.83
2019-05-06T12:30:56.487Z,5.50
2019-05-06T12:33:29.588Z,3.15
2019-05-06T12:35:59.795Z,4.72
2019-05-06T12:38:31.081Z,4.35
2019-05-06T12:41:00.119Z,7.37
2019-05-06T12:43:32.957Z,5.42
2019-05-06T12:46:05.497Z,6.78
2019-05-06T12:48:38.506Z,4.95
2019-05-06T12:51:07.040Z,6.97
2019-05-06T12:53:35.536Z,6.62
2019-05-06T12:56:04.040Z,6.03
2019-05-06T12:58:32.646Z,5.80
2019-05-06T13:01:04.034Z,5.30
2019-05-06T13:03:32.572Z,5.25
2019-05-06T13:06:07.474Z,7.90
2019-05-06T13:08:51.725Z,6.30
2019-05-06T13:11:02.601Z,6.67
2019-05-06T13:13:33.211Z,8.23
2019-05-06T13:16:02.772Z,7.40
2019-05-06T13:18:32.760Z,4.87
2019-05-06T13:21:04.419Z,6.35
2019-05-06T13:23:35.051Z,8.65
2019-05-06T13:26:03.433Z,6.67
2019-05-06T13:28:33.580Z,6.00
2019-05-06T13:31:15.786Z,9.13
2019-05-06T13:33:46.314Z,7.90
2019-05-06T13:36:14.882Z,7.73
2019-05-06T13:38:43.478Z,7.97
2019-05-06T13:41:12.684Z,9.95
2019-05-06T13:43:43.634Z,7.05
2019-05-06T13:46:14.114Z,6.90
2019-05-06T13:49:02.909Z,4.00
2019-05-06T13:51:42.998Z,8.15
2019-05-06T13:54:15.769Z,8.70
2019-05-06T13:56:42.590Z,4.75
2019-05-06T13:59:12.906Z,11.28
2019-05-06T14:01:44.056Z,6.45
2019-05-06T14:04:14.487Z,8.08
2019-05-06T14:06:43.426Z,8.88
2019-05-06T14:09:27.913Z,8.00
2019-05-06T14:11:42.483Z,9.90
2019-05-06T14:14:12.511Z,6.87
2019-05-06T14:16:42.634Z,5.15
2019-05-06T14:19:13.216Z,10.38
2019-05-06T14:21:43.247Z,5.12
2019-05-06T14:24:13.330Z,6.05
2019-05-06T14:26:58.471Z,6.58
2019-05-06T14:29:33.181Z,8.05
2019-05-06T14:32:01.992Z,10.20
2019-05-06T14:34:32.507Z,7.50
2019-05-06T14:37:00.874Z,6.20
2019-05-06T14:39:48.537Z,8.08
2019-05-06T14:42:04.226Z,8.88
2019-05-06T14:44:32.786Z,6.25
2019-05-06T14:47:08.748Z,6.72
2019-05-06T14:49:37.158Z,4.87
2019-05-06T14:52:05.604Z,8.53
2019-05-06T14:54:35.887Z,6.55
2019-05-06T14:57:14.210Z,5.20
2019-05-06T14:59:42.767Z,5.95
2019-05-06T15:02:13.234Z,5.50
2019-05-06T15:04:43.476Z,4.87
2019-05-06T15:07:12.778Z,6.12
2019-05-06T15:09:57.719Z,3.92
2019-05-06T15:12:14.255Z,4.67
2019-05-06T15:14:43.212Z,8.63
2019-05-06T15:17:11.633Z,12.75
2019-05-06T15:19:42.685Z,6.05
2019-05-06T15:22:10.361Z,7.37
2019-05-06T15:24:38.870Z,5.78
2019-05-06T15:27:07.633Z,5.30
2019-05-06T15:29:36.216Z,10.78
2019-05-06T15:32:06.494Z,5.65
2019-05-06T15:34:42.288Z,8.78
2019-05-06T15:37:13.823Z,5.10
2019-05-06T15:39:43.763Z,6.35
2019-05-06T15:42:12.920Z,8.18
2019-05-06T15:44:42.462Z,5.08
2019-05-06T15:47:13.205Z,4.28
2019-05-06T15:49:41.986Z,6.75
2019-05-06T15:52:12.477Z,6.00
2019-05-06T15:54:42.870Z,6.83
2019-05-06T15:57:11.242Z,7.50
2019-05-06T15:59:42.168Z,7.37
2019-05-06T16:02:10.215Z,18.62
2019-05-06T16:04:38.842Z,4.62
2019-05-06T16:07:07.515Z,4.03
2019-05-06T16:09:36.114Z,4.50
2019-05-06T16:12:04.787Z,5.85
2019-05-06T16:14:34.861Z,9.03
2019-05-06T16:17:03.856Z,7.05
2019-05-06T16:19:33.248Z,3.87
2019-05-06T16:22:04.105Z,6.37
2019-05-06T16:24:42.843Z,6.50
2019-05-06T16:27:12.401Z,7.53
2019-05-06T16:29:42.919Z,9.10
2019-05-06T16:32:10.872Z,5.85
2019-05-06T16:34:39.461Z,6.83
2019-05-06T16:37:08.049Z,6.80
2019-05-06T16:39:36.626Z,6.50
2019-05-06T16:42:05.389Z,6.90
2019-05-06T16:44:34.130Z,8.37
2019-05-06T16:47:03.041Z,6.45
2019-05-06T16:49:33.214Z,6.90
2019-05-06T16:52:02.642Z,6.45
2019-05-06T16:54:34.393Z,5.72
2019-05-06T16:57:03.709Z,5.75
2019-05-06T16:59:33.471Z,9.43
2019-05-06T17:02:03.775Z,6.78
2019-05-06T17:04:34.087Z,7.67
2019-05-06T17:07:03.082Z,10.72
2019-05-06T17:09:32.739Z,9.63
2019-05-06T17:12:04.447Z,6.08
2019-05-06T17:14:32.598Z,11.10
2019-05-06T17:17:03.182Z,9.00
2019-05-06T17:19:32.401Z,9.33
2019-05-06T17:22:03.056Z,8.35
2019-05-06T17:24:33.106Z,10.25
2019-05-06T17:27:02.744Z,16.75
2019-05-06T17:29:51.086Z,7.25
2019-05-06T17:32:23.755Z,8.83
2019-05-06T17:34:57.393Z,8.28
2019-05-06T17:37:42.535Z,7.25
2019-05-06T17:40:14.036Z,7.42
2019-05-06T17:42:43.069Z,5.65
2019-05-06T17:45:31.988Z,8.78
2019-05-06T17:48:02.795Z,6.28
2019-05-06T17:50:32.673Z,8.80
2019-05-06T17:53:01.872Z,7.95
2019-05-06T17:55:32.455Z,6.70
2019-05-06T17:58:02.518Z,7.95
2019-05-06T18:00:32.385Z,8.13
2019-05-06T18:03:02.484Z,8.38
2019-05-06T18:05:32.501Z,8.13
2019-05-06T18:08:02.935Z,5.78
2019-05-06T18:10:33.489Z,7.40
2019-05-06T18:13:03.061Z,4.87
2019-05-06T18:15:32.614Z,8.75
2019-05-06T18:18:02.165Z,5.65
2019-05-06T18:20:33.550Z,8.16
2019-05-06T18:23:02.099Z,6.92
2019-05-06T18:25:32.891Z,6.22
2019-05-06T18:28:01.016Z,7.92
2019-05-06T18:30:33.558Z,6.95
2019-05-06T18:32:59.722Z,10.13
2019-05-06T18:35:28.182Z,6.35
2019-05-06T18:37:56.768Z,9.10
2019-05-06T18:40:25.334Z,10.68
2019-05-06T18:42:53.858Z,6.67
2019-05-06T18:45:22.494Z,6.10
2019-05-06T18:47:53.007Z,10.00
2019-05-06T18:50:22.091Z,8.78
2019-05-06T18:52:52.861Z,9.70
2019-05-06T18:55:22.335Z,30.95
2019-05-06T18:57:52.902Z,23.35
2019-05-06T19:00:22.457Z,7.62
2019-05-06T19:02:52.263Z,6.12
2019-05-06T19:05:27.111Z,10.68
2019-05-06T19:07:55.665Z,11.22
2019-05-06T19:10:25.907Z,9.05
2019-05-06T19:12:54.515Z,6.78
2019-05-06T19:15:23.096Z,9.55
2019-05-06T19:17:52.649Z,8.33
2019-05-06T19:20:21.939Z,7.17
2019-05-06T19:22:53.459Z,10.65
2019-05-06T19:25:22.677Z,11.75
2019-05-06T19:27:53.093Z,12.03
2019-05-06T19:30:23.410Z,23.07
2019-05-06T19:32:53.109Z,35.73
2019-05-06T19:35:21.773Z,33.85
2019-05-06T19:37:50.281Z,28.20
2019-05-06T19:40:18.982Z,32.05
2019-05-06T19:42:50.149Z,39.80
2019-05-06T19:45:17.819Z,40.10
2019-05-06T19:47:46.245Z,40.58
2019-05-06T19:50:15.099Z,32.33
2019-05-06T19:52:43.563Z,21.93
2019-05-06T19:55:12.407Z,20.20
2019-05-06T19:57:42.974Z,15.50
2019-05-06T20:00:11.747Z,14.38
2019-05-06T20:02:40.309Z,9.85
2019-05-06T20:05:12.093Z,11.40
2019-05-06T20:07:42.913Z,10.98
2019-05-06T20:10:25.001Z,11.63
2019-05-06T20:13:02.765Z,12.73
2019-05-06T20:15:42.833Z,11.73
2019-05-06T20:18:11.453Z,13.25
2019-05-06T20:20:42.064Z,15.05
2019-05-06T20:23:12.519Z,10.25
2019-05-06T20:25:42.610Z,11.90
2019-05-06T20:28:13.155Z,12.37
2019-05-06T20:30:42.286Z,12.18
2019-05-06T20:33:13.013Z,10.18
2019-05-06T20:35:43.203Z,13.00
2019-05-06T20:38:12.576Z,14.55
2019-05-06T20:40:43.017Z,14.10
2019-05-06T20:43:19.330Z,14.53
2019-05-06T20:45:42.860Z,16.23
2019-05-06T20:48:12.871Z,11.25
2019-05-06T20:50:42.972Z,14.20
2019-05-06T20:53:12.101Z,13.70
2019-05-06T20:55:43.119Z,12.33
2019-05-06T20:58:12.251Z,13.70
2019-05-06T21:00:43.030Z,12.65
2019-05-06T21:03:12.174Z,13.55
2019-05-06T21:05:43.237Z,11.83
2019-05-06T21:08:13.011Z,15.28
2019-05-06T21:10:43.647Z,15.15
2019-05-06T21:13:13.377Z,12.68
2019-05-06T21:15:43.167Z,16.15
2019-05-06T21:18:12.237Z,12.73
2019-05-06T21:20:43.363Z,10.68
2019-05-06T21:23:11.361Z,11.10
2019-05-06T21:25:39.968Z,12.63
2019-05-06T21:28:08.582Z,13.18
2019-05-06T21:30:37.234Z,14.07
2019-05-06T21:33:05.645Z,12.47
2019-05-06T21:35:34.470Z,15.20
2019-05-06T21:38:02.922Z,12.47
2019-05-06T21:40:32.282Z,13.15
2019-05-06T21:43:02.072Z,11.20
2019-05-06T21:45:32.903Z,13.05
2019-05-06T21:48:02.822Z,11.55
2019-05-06T21:50:33.110Z,21.77
2019-05-06T21:53:02.692Z,25.23
2019-05-06T21:55:32.349Z,11.53
2019-05-06T21:58:02.171Z,11.73
2019-05-06T22:00:43.449Z,12.55
2019-05-06T22:03:13.442Z,14.07
2019-05-06T22:05:42.158Z,12.35
2019-05-06T22:08:12.669Z,12.58
2019-05-06T22:10:42.157Z,9.13
2019-05-06T22:13:14.288Z,9.98
2019-05-06T22:15:42.132Z,9.63
2019-05-06T22:18:12.523Z,11.35
2019-05-06T22:20:58.745Z,13.03
2019-05-06T22:23:28.865Z,13.03
2019-05-06T22:26:08.573Z,8.55
2019-05-06T22:28:27.582Z,10.68
2019-05-06T22:30:56.095Z,10.80
2019-05-06T22:33:24.574Z,11.33
2019-05-06T22:35:54.932Z,11.10
2019-05-06T22:38:23.475Z,10.55
2019-05-06T22:40:52.993Z,13.15
2019-05-06T22:43:22.000Z,12.68
2019-05-06T22:45:50.551Z,13.05
2019-05-06T22:48:18.990Z,16.57
2019-05-06T22:50:49.126Z,12.30
2019-05-06T22:53:17.620Z,12.90
2019-05-06T22:55:46.092Z,15.63
2019-05-06T22:58:14.579Z,12.43
2019-05-06T23:00:44.771Z,16.95
2019-05-06T23:03:14.808Z,12.60
2019-05-06T23:05:43.282Z,12.37
2019-05-06T23:08:12.318Z,14.43
2019-05-06T23:10:42.293Z,12.33
2019-05-06T23:13:12.430Z,11.03
2019-05-06T23:15:42.071Z,13.30
2019-05-06T23:18:10.786Z,15.05
2019-05-06T23:20:39.388Z,11.18
2019-05-06T23:23:07.965Z,14.30
2019-05-06T23:25:36.487Z,15.08
2019-05-06T23:28:05.247Z,12.63
2019-05-06T23:30:33.808Z,12.25
2019-05-06T23:33:02.382Z,12.20
2019-05-06T23:35:30.895Z,10.28
2019-05-06T23:38:35.467Z,12.88
2019-05-06T23:41:42.190Z,11.55
2019-05-06T23:44:46.391Z,12.88
2019-05-06T23:47:52.979Z,10.13
2019-05-06T23:50:56.699Z,14.53
2019-05-06T23:54:03.058Z,10.18
2019-05-06T23:56:42.882Z,13.25
2019-05-06T23:59:12.847Z,14.98
